sensor_id;sensor_type;location;lat;lon;timestamp;P1;durP1;ratioP1;P2;durP2;ratioP2
51020;SDS011;38907;45.562;8.856;2024-03-08T00:03:41;38.50;;;27.05;;
51020;SDS011;38907;45.562;8.856;2024-03-08T00:08:43;38.88;;;29.33;;
51020;SDS011;38907;45.562;8.856;2024-03-08T00:13:45;44.67;;;31.00;;
51020;SDS011;38907;45.562;8.856;2024-03-08T00:18:48;47.50;;;32.38;;
51020;SDS011;38907;45.562;8.856;2024-03-08T00:23:50;39.58;;;30.33;;
51020;SDS011;38907;45.562;8.856;2024-03-08T00:28:54;43.25;;;31.92;;
51020;SDS011;38907;45.562;8.856;2024-03-08T00:33:57;50.80;;;35.05;;
51020;SDS011;38907;45.562;8.856;2024-03-08T00:38:59;45.67;;;33.90;;
51020;SDS011;38907;45.562;8.856;2024-03-08T00:44:01;41.05;;;33.55;;
51020;SDS011;38907;45.562;8.856;2024-03-08T00:49:06;38.00;;;29.40;;
51020;SDS011;38907;45.562;8.856;2024-03-08T00:54:07;41.55;;;28.73;;
51020;SDS011;38907;45.562;8.856;2024-03-08T00:59:09;41.30;;;29.75;;
51020;SDS011;38907;45.562;8.856;2024-03-08T01:04:12;40.08;;;32.50;;
51020;SDS011;38907;45.562;8.856;2024-03-08T01:09:14;43.30;;;29.98;;
51020;SDS011;38907;45.562;8.856;2024-03-08T01:14:17;39.73;;;28.90;;
51020;SDS011;38907;45.562;8.856;2024-03-08T01:19:20;37.72;;;30.33;;
51020;SDS011;38907;45.562;8.856;2024-03-08T01:29:25;50.33;;;33.63;;
51020;SDS011;38907;45.562;8.856;2024-03-08T01:34:28;48.10;;;32.40;;
51020;SDS011;38907;45.562;8.856;2024-03-08T01:39:30;46.03;;;33.05;;
51020;SDS011;38907;45.562;8.856;2024-03-08T01:44:32;41.28;;;33.30;;
51020;SDS011;38907;45.562;8.856;2024-03-08T01:49:35;42.15;;;33.65;;
51020;SDS011;38907;45.562;8.856;2024-03-08T01:54:37;40.75;;;32.53;;
51020;SDS011;38907;45.562;8.856;2024-03-08T01:59:41;41.17;;;31.83;;
51020;SDS011;38907;45.562;8.856;2024-03-08T02:04:44;38.90;;;32.30;;
51020;SDS011;38907;45.562;8.856;2024-03-08T02:09:46;42.38;;;33.08;;
51020;SDS011;38907;45.562;8.856;2024-03-08T02:14:48;40.25;;;31.85;;
51020;SDS011;38907;45.562;8.856;2024-03-08T02:19:52;41.45;;;32.38;;
51020;SDS011;38907;45.562;8.856;2024-03-08T02:24:55;40.30;;;32.25;;
51020;SDS011;38907;45.562;8.856;2024-03-08T02:29:57;44.45;;;32.90;;
51020;SDS011;38907;45.562;8.856;2024-03-08T02:34:59;39.55;;;32.00;;
51020;SDS011;38907;45.562;8.856;2024-03-08T02:40:03;45.10;;;32.65;;
51020;SDS011;38907;45.562;8.856;2024-03-08T02:45:06;41.58;;;30.80;;
51020;SDS011;38907;45.562;8.856;2024-03-08T02:50:10;42.63;;;32.10;;
51020;SDS011;38907;45.562;8.856;2024-03-08T02:55:17;38.58;;;31.30;;
51020;SDS011;38907;45.562;8.856;2024-03-08T03:00:20;40.67;;;30.30;;
51020;SDS011;38907;45.562;8.856;2024-03-08T03:05:23;42.08;;;32.53;;
51020;SDS011;38907;45.562;8.856;2024-03-08T03:10:27;40.67;;;30.20;;
51020;SDS011;38907;45.562;8.856;2024-03-08T03:15:28;41.85;;;29.77;;
51020;SDS011;38907;45.562;8.856;2024-03-08T03:20:30;40.92;;;31.45;;
51020;SDS011;38907;45.562;8.856;2024-03-08T03:25:34;36.83;;;29.60;;
51020;SDS011;38907;45.562;8.856;2024-03-08T03:30:38;36.05;;;29.63;;
51020;SDS011;38907;45.562;8.856;2024-03-08T03:35:40;39.15;;;29.85;;
51020;SDS011;38907;45.562;8.856;2024-03-08T03:40:45;39.83;;;29.33;;
51020;SDS011;38907;45.562;8.856;2024-03-08T03:45:48;39.38;;;30.23;;
51020;SDS011;38907;45.562;8.856;2024-03-08T03:50:50;35.10;;;27.35;;
51020;SDS011;38907;45.562;8.856;2024-03-08T03:55:54;37.58;;;27.83;;
51020;SDS011;38907;45.562;8.856;2024-03-08T04:00:56;39.40;;;28.33;;
51020;SDS011;38907;45.562;8.856;2024-03-08T04:05:58;38.55;;;29.35;;
51020;SDS011;38907;45.562;8.856;2024-03-08T04:11:02;35.80;;;27.75;;
51020;SDS011;38907;45.562;8.856;2024-03-08T04:21:08;42.65;;;29.65;;
51020;SDS011;38907;45.562;8.856;2024-03-08T04:26:11;36.88;;;29.40;;
51020;SDS011;38907;45.562;8.856;2024-03-08T04:31:13;38.47;;;28.50;;
51020;SDS011;38907;45.562;8.856;2024-03-08T04:36:15;41.20;;;29.88;;
51020;SDS011;38907;45.562;8.856;2024-03-08T04:41:18;40.45;;;31.55;;
51020;SDS011;38907;45.562;8.856;2024-03-08T04:51:22;40.47;;;29.50;;
51020;SDS011;38907;45.562;8.856;2024-03-08T04:56:26;41.03;;;32.22;;
51020;SDS011;38907;45.562;8.856;2024-03-08T05:01:27;45.25;;;32.13;;
51020;SDS011;38907;45.562;8.856;2024-03-08T05:06:29;38.92;;;30.15;;
51020;SDS011;38907;45.562;8.856;2024-03-08T05:11:33;41.88;;;32.17;;
51020;SDS011;38907;45.562;8.856;2024-03-08T05:16:35;44.22;;;31.52;;
51020;SDS011;38907;45.562;8.856;2024-03-08T05:21:37;51.60;;;38.15;;
51020;SDS011;38907;45.562;8.856;2024-03-08T05:26:40;53.30;;;37.72;;
51020;SDS011;38907;45.562;8.856;2024-03-08T05:31:45;50.00;;;34.45;;
51020;SDS011;38907;45.562;8.856;2024-03-08T05:36:48;48.60;;;34.80;;
51020;SDS011;38907;45.562;8.856;2024-03-08T05:41:51;46.42;;;33.47;;
51020;SDS011;38907;45.562;8.856;2024-03-08T05:46:55;43.65;;;32.33;;
51020;SDS011;38907;45.562;8.856;2024-03-08T05:51:57;46.72;;;32.65;;
51020;SDS011;38907;45.562;8.856;2024-03-08T05:57:01;45.65;;;33.65;;
51020;SDS011;38907;45.562;8.856;2024-03-08T06:02:03;45.08;;;33.92;;
51020;SDS011;38907;45.562;8.856;2024-03-08T06:07:05;48.78;;;34.53;;
51020;SDS011;38907;45.562;8.856;2024-03-08T06:12:13;44.90;;;31.90;;
51020;SDS011;38907;45.562;8.856;2024-03-08T06:17:18;49.45;;;35.08;;
51020;SDS011;38907;45.562;8.856;2024-03-08T06:22:25;45.05;;;32.22;;
51020;SDS011;38907;45.562;8.856;2024-03-08T06:27:29;44.38;;;33.50;;
51020;SDS011;38907;45.562;8.856;2024-03-08T06:32:34;44.53;;;32.65;;
51020;SDS011;38907;45.562;8.856;2024-03-08T06:37:35;48.30;;;33.80;;
51020;SDS011;38907;45.562;8.856;2024-03-08T06:42:39;43.38;;;33.45;;
51020;SDS011;38907;45.562;8.856;2024-03-08T06:52:43;42.70;;;33.17;;
51020;SDS011;38907;45.562;8.856;2024-03-08T06:57:49;43.95;;;30.77;;
51020;SDS011;38907;45.562;8.856;2024-03-08T07:07:53;34.03;;;26.63;;
51020;SDS011;38907;45.562;8.856;2024-03-08T07:12:57;34.42;;;23.67;;
51020;SDS011;38907;45.562;8.856;2024-03-08T07:18:00;30.13;;;22.58;;
51020;SDS011;38907;45.562;8.856;2024-03-08T07:23:02;33.80;;;24.92;;
51020;SDS011;38907;45.562;8.856;2024-03-08T07:28:06;29.63;;;22.50;;
51020;SDS011;38907;45.562;8.856;2024-03-08T07:33:08;30.98;;;22.20;;
51020;SDS011;38907;45.562;8.856;2024-03-08T07:38:11;34.58;;;23.75;;
51020;SDS011;38907;45.562;8.856;2024-03-08T07:43:16;27.50;;;22.40;;
51020;SDS011;38907;45.562;8.856;2024-03-08T07:48:17;26.48;;;21.92;;
51020;SDS011;38907;45.562;8.856;2024-03-08T07:53:19;28.70;;;21.95;;
51020;SDS011;38907;45.562;8.856;2024-03-08T07:58:23;25.83;;;19.75;;
51020;SDS011;38907;45.562;8.856;2024-03-08T08:03:24;27.75;;;20.33;;
51020;SDS011;38907;45.562;8.856;2024-03-08T08:08:27;23.93;;;18.97;;
51020;SDS011;38907;45.562;8.856;2024-03-08T08:13:31;25.03;;;19.63;;
51020;SDS011;38907;45.562;8.856;2024-03-08T08:18:33;28.00;;;20.10;;
51020;SDS011;38907;45.562;8.856;2024-03-08T08:23:36;30.47;;;21.93;;
51020;SDS011;38907;45.562;8.856;2024-03-08T08:28:39;26.58;;;19.83;;
51020;SDS011;38907;45.562;8.856;2024-03-08T08:33:43;24.75;;;17.85;;
51020;SDS011;38907;45.562;8.856;2024-03-08T08:38:45;25.90;;;20.33;;
51020;SDS011;38907;45.562;8.856;2024-03-08T08:43:48;24.70;;;19.17;;
51020;SDS011;38907;45.562;8.856;2024-03-08T08:48:50;25.08;;;19.25;;
51020;SDS011;38907;45.562;8.856;2024-03-08T08:53:52;28.83;;;20.48;;
51020;SDS011;38907;45.562;8.856;2024-03-08T09:03:59;25.52;;;19.42;;
51020;SDS011;38907;45.562;8.856;2024-03-08T09:09:00;27.40;;;20.63;;
51020;SDS011;38907;45.562;8.856;2024-03-08T09:14:05;27.45;;;20.20;;
51020;SDS011;38907;45.562;8.856;2024-03-08T09:19:07;29.65;;;20.95;;
51020;SDS011;38907;45.562;8.856;2024-03-08T09:24:11;26.38;;;20.23;;
51020;SDS011;38907;45.562;8.856;2024-03-08T09:29:14;25.75;;;20.52;;
51020;SDS011;38907;45.562;8.856;2024-03-08T09:34:16;31.65;;;20.45;;
51020;SDS011;38907;45.562;8.856;2024-03-08T09:39:18;23.95;;;19.83;;
51020;SDS011;38907;45.562;8.856;2024-03-08T09:44:22;24.75;;;19.08;;
51020;SDS011;38907;45.562;8.856;2024-03-08T09:49:25;26.15;;;19.77;;
51020;SDS011;38907;45.562;8.856;2024-03-08T09:54:27;26.30;;;20.60;;
51020;SDS011;38907;45.562;8.856;2024-03-08T09:59:31;28.97;;;18.80;;
51020;SDS011;38907;45.562;8.856;2024-03-08T10:04:48;24.65;;;19.08;;
51020;SDS011;38907;45.562;8.856;2024-03-08T10:09:51;25.45;;;19.48;;
51020;SDS011;38907;45.562;8.856;2024-03-08T10:14:56;25.17;;;18.52;;
51020;SDS011;38907;45.562;8.856;2024-03-08T10:19:59;26.25;;;19.05;;
51020;SDS011;38907;45.562;8.856;2024-03-08T10:25:01;25.90;;;18.77;;
51020;SDS011;38907;45.562;8.856;2024-03-08T10:30:08;28.60;;;19.63;;
51020;SDS011;38907;45.562;8.856;2024-03-08T10:35:13;26.27;;;19.67;;
51020;SDS011;38907;45.562;8.856;2024-03-08T10:40:17;23.50;;;18.52;;
51020;SDS011;38907;45.562;8.856;2024-03-08T10:45:26;25.77;;;19.27;;
51020;SDS011;38907;45.562;8.856;2024-03-08T10:50:33;24.02;;;18.35;;
51020;SDS011;38907;45.562;8.856;2024-03-08T10:55:36;27.90;;;18.25;;
51020;SDS011;38907;45.562;8.856;2024-03-08T11:00:42;22.45;;;17.52;;
51020;SDS011;38907;45.562;8.856;2024-03-08T11:05:44;22.20;;;17.63;;
51020;SDS011;38907;45.562;8.856;2024-03-08T11:10:49;24.13;;;17.05;;
51020;SDS011;38907;45.562;8.856;2024-03-08T11:15:54;24.35;;;18.90;;
51020;SDS011;38907;45.562;8.856;2024-03-08T11:20:56;25.33;;;18.55;;
51020;SDS011;38907;45.562;8.856;2024-03-08T11:25:58;23.42;;;18.48;;
51020;SDS011;38907;45.562;8.856;2024-03-08T11:36:26;20.75;;;16.63;;
51020;SDS011;38907;45.562;8.856;2024-03-08T11:41:30;20.88;;;17.83;;
51020;SDS011;38907;45.562;8.856;2024-03-08T11:46:33;23.20;;;18.40;;
51020;SDS011;38907;45.562;8.856;2024-03-08T11:51:35;23.50;;;17.98;;
51020;SDS011;38907;45.562;8.856;2024-03-08T11:56:37;26.33;;;18.35;;
51020;SDS011;38907;45.562;8.856;2024-03-08T12:01:42;22.95;;;18.42;;
51020;SDS011;38907;45.562;8.856;2024-03-08T12:06:45;22.02;;;17.20;;
51020;SDS011;38907;45.562;8.856;2024-03-08T12:11:47;20.90;;;17.60;;
51020;SDS011;38907;45.562;8.856;2024-03-08T12:16:52;23.40;;;18.38;;
51020;SDS011;38907;45.562;8.856;2024-03-08T12:21:54;19.80;;;16.65;;
51020;SDS011;38907;45.562;8.856;2024-03-08T12:26:56;18.60;;;15.70;;
51020;SDS011;38907;45.562;8.856;2024-03-08T12:31:59;19.08;;;16.20;;
51020;SDS011;38907;45.562;8.856;2024-03-08T12:37:02;19.88;;;16.35;;
51020;SDS011;38907;45.562;8.856;2024-03-08T12:42:07;18.13;;;15.88;;
51020;SDS011;38907;45.562;8.856;2024-03-08T12:47:10;22.77;;;16.50;;
51020;SDS011;38907;45.562;8.856;2024-03-08T12:57:18;21.13;;;16.38;;
51020;SDS011;38907;45.562;8.856;2024-03-08T13:02:21;26.52;;;18.73;;
51020;SDS011;38907;45.562;8.856;2024-03-08T13:07:23;23.17;;;15.63;;
51020;SDS011;38907;45.562;8.856;2024-03-08T13:12:25;19.88;;;15.70;;
51020;SDS011;38907;45.562;8.856;2024-03-08T13:17:29;16.85;;;15.13;;
51020;SDS011;38907;45.562;8.856;2024-03-08T13:22:31;17.60;;;14.82;;
51020;SDS011;38907;45.562;8.856;2024-03-08T13:27:33;18.80;;;15.40;;
51020;SDS011;38907;45.562;8.856;2024-03-08T13:32:38;22.88;;;15.27;;
51020;SDS011;38907;45.562;8.856;2024-03-08T13:37:41;20.45;;;15.05;;
51020;SDS011;38907;45.562;8.856;2024-03-08T13:42:44;16.70;;;14.67;;
51020;SDS011;38907;45.562;8.856;2024-03-08T13:47:47;19.63;;;15.45;;
51020;SDS011;38907;45.562;8.856;2024-03-08T13:52:51;20.35;;;14.70;;
51020;SDS011;38907;45.562;8.856;2024-03-08T13:57:54;18.23;;;14.47;;
51020;SDS011;38907;45.562;8.856;2024-03-08T14:08:00;23.90;;;17.02;;
51020;SDS011;38907;45.562;8.856;2024-03-08T14:13:03;21.48;;;18.35;;
51020;SDS011;38907;45.562;8.856;2024-03-08T14:23:09;19.52;;;14.50;;
51020;SDS011;38907;45.562;8.856;2024-03-08T14:28:12;21.58;;;15.80;;
51020;SDS011;38907;45.562;8.856;2024-03-08T14:33:16;17.88;;;14.40;;
51020;SDS011;38907;45.562;8.856;2024-03-08T14:38:18;18.05;;;14.82;;
51020;SDS011;38907;45.562;8.856;2024-03-08T14:43:20;18.02;;;14.95;;
51020;SDS011;38907;45.562;8.856;2024-03-08T14:48:24;18.60;;;15.50;;
51020;SDS011;38907;45.562;8.856;2024-03-08T14:53:26;23.80;;;16.38;;
51020;SDS011;38907;45.562;8.856;2024-03-08T14:58:27;19.80;;;15.55;;
51020;SDS011;38907;45.562;8.856;2024-03-08T15:03:31;18.35;;;15.88;;
51020;SDS011;38907;45.562;8.856;2024-03-08T15:08:33;21.80;;;15.63;;
51020;SDS011;38907;45.562;8.856;2024-03-08T15:13:35;18.40;;;15.70;;
51020;SDS011;38907;45.562;8.856;2024-03-08T15:18:43;23.48;;;16.25;;
51020;SDS011;38907;45.562;8.856;2024-03-08T15:23:46;21.10;;;15.70;;
51020;SDS011;38907;45.562;8.856;2024-03-08T15:28:52;18.48;;;15.45;;
51020;SDS011;38907;45.562;8.856;2024-03-08T15:33:55;17.77;;;14.93;;
51020;SDS011;38907;45.562;8.856;2024-03-08T15:39:00;17.73;;;14.65;;
51020;SDS011;38907;45.562;8.856;2024-03-08T15:44:02;20.27;;;15.10;;
51020;SDS011;38907;45.562;8.856;2024-03-08T15:49:06;19.80;;;14.68;;
51020;SDS011;38907;45.562;8.856;2024-03-08T15:54:08;19.67;;;14.75;;
51020;SDS011;38907;45.562;8.856;2024-03-08T15:59:10;19.95;;;15.10;;
51020;SDS011;38907;45.562;8.856;2024-03-08T16:04:14;18.67;;;15.00;;
51020;SDS011;38907;45.562;8.856;2024-03-08T16:14:17;18.23;;;15.18;;
51020;SDS011;38907;45.562;8.856;2024-03-08T16:19:21;20.70;;;15.68;;
51020;SDS011;38907;45.562;8.856;2024-03-08T16:24:24;19.67;;;16.33;;
51020;SDS011;38907;45.562;8.856;2024-03-08T16:29:26;18.95;;;15.77;;
51020;SDS011;38907;45.562;8.856;2024-03-08T16:34:30;19.95;;;16.88;;
51020;SDS011;38907;45.562;8.856;2024-03-08T16:39:34;21.52;;;17.05;;
51020;SDS011;38907;45.562;8.856;2024-03-08T16:44:36;23.20;;;17.25;;
51020;SDS011;38907;45.562;8.856;2024-03-08T16:49:42;26.03;;;17.77;;
51020;SDS011;38907;45.562;8.856;2024-03-08T16:54:51;19.90;;;16.45;;
51020;SDS011;38907;45.562;8.856;2024-03-08T16:59:55;19.58;;;16.30;;
51020;SDS011;38907;45.562;8.856;2024-03-08T17:04:58;21.75;;;15.65;;
51020;SDS011;38907;45.562;8.856;2024-03-08T17:10:15;19.45;;;16.20;;
51020;SDS011;38907;45.562;8.856;2024-03-08T17:15:44;19.00;;;16.23;;
51020;SDS011;38907;45.562;8.856;2024-03-08T17:20:49;17.80;;;15.88;;
51020;SDS011;38907;45.562;8.856;2024-03-08T17:25:51;20.25;;;15.65;;
51020;SDS011;38907;45.562;8.856;2024-03-08T17:30:54;18.90;;;16.90;;
51020;SDS011;38907;45.562;8.856;2024-03-08T17:35:57;22.90;;;16.98;;
51020;SDS011;38907;45.562;8.856;2024-03-08T17:40:59;21.33;;;16.75;;
51020;SDS011;38907;45.562;8.856;2024-03-08T17:46:01;23.65;;;18.02;;
51020;SDS011;38907;45.562;8.856;2024-03-08T17:51:06;23.10;;;18.50;;
51020;SDS011;38907;45.562;8.856;2024-03-08T18:01:09;28.10;;;18.83;;
51020;SDS011;38907;45.562;8.856;2024-03-08T18:06:13;25.08;;;18.83;;
51020;SDS011;38907;45.562;8.856;2024-03-08T18:11:15;20.77;;;17.02;;
51020;SDS011;38907;45.562;8.856;2024-03-08T18:16:17;22.13;;;17.25;;
51020;SDS011;38907;45.562;8.856;2024-03-08T18:21:21;22.75;;;19.02;;
51020;SDS011;38907;45.562;8.856;2024-03-08T18:26:23;21.50;;;18.27;;
51020;SDS011;38907;45.562;8.856;2024-03-08T18:31:26;24.00;;;18.80;;
51020;SDS011;38907;45.562;8.856;2024-03-08T18:36:29;23.17;;;18.80;;
51020;SDS011;38907;45.562;8.856;2024-03-08T18:41:31;22.77;;;18.33;;
51020;SDS011;38907;45.562;8.856;2024-03-08T18:46:34;25.25;;;20.10;;
51020;SDS011;38907;45.562;8.856;2024-03-08T18:51:40;25.38;;;19.23;;
51020;SDS011;38907;45.562;8.856;2024-03-08T18:56:43;21.27;;;18.60;;
51020;SDS011;38907;45.562;8.856;2024-03-08T19:01:46;25.45;;;19.90;;
51020;SDS011;38907;45.562;8.856;2024-03-08T19:06:52;24.55;;;18.75;;
51020;SDS011;38907;45.562;8.856;2024-03-08T19:11:54;24.45;;;19.80;;
51020;SDS011;38907;45.562;8.856;2024-03-08T19:16:57;22.52;;;19.70;;
51020;SDS011;38907;45.562;8.856;2024-03-08T19:22:01;22.15;;;18.10;;
51020;SDS011;38907;45.562;8.856;2024-03-08T19:27:04;24.05;;;18.35;;
51020;SDS011;38907;45.562;8.856;2024-03-08T19:32:07;22.00;;;18.80;;
51020;SDS011;38907;45.562;8.856;2024-03-08T19:37:13;25.00;;;19.88;;
51020;SDS011;38907;45.562;8.856;2024-03-08T19:42:15;23.38;;;19.67;;
51020;SDS011;38907;45.562;8.856;2024-03-08T19:47:19;26.52;;;20.15;;
51020;SDS011;38907;45.562;8.856;2024-03-08T19:52:22;24.75;;;20.02;;
51020;SDS011;38907;45.562;8.856;2024-03-08T19:57:24;26.92;;;22.35;;
51020;SDS011;38907;45.562;8.856;2024-03-08T20:02:29;25.45;;;20.88;;
51020;SDS011;38907;45.562;8.856;2024-03-08T20:07:32;26.05;;;20.38;;
51020;SDS011;38907;45.562;8.856;2024-03-08T20:12:34;23.30;;;19.65;;
51020;SDS011;38907;45.562;8.856;2024-03-08T20:17:38;26.92;;;20.60;;
51020;SDS011;38907;45.562;8.856;2024-03-08T20:22:43;24.67;;;20.33;;
51020;SDS011;38907;45.562;8.856;2024-03-08T20:27:46;23.98;;;20.23;;
51020;SDS011;38907;45.562;8.856;2024-03-08T20:32:52;27.17;;;21.67;;
51020;SDS011;38907;45.562;8.856;2024-03-08T20:37:57;24.52;;;19.70;;
51020;SDS011;38907;45.562;8.856;2024-03-08T20:42:59;25.27;;;19.45;;
51020;SDS011;38907;45.562;8.856;2024-03-08T20:48:02;23.65;;;20.73;;
51020;SDS011;38907;45.562;8.856;2024-03-08T20:53:07;23.00;;;19.63;;
51020;SDS011;38907;45.562;8.856;2024-03-08T20:58:11;24.83;;;19.85;;
51020;SDS011;38907;45.562;8.856;2024-03-08T21:03:13;24.98;;;19.77;;
51020;SDS011;38907;45.562;8.856;2024-03-08T21:08:20;26.88;;;20.35;;
51020;SDS011;38907;45.562;8.856;2024-03-08T21:13:26;23.20;;;19.77;;
51020;SDS011;38907;45.562;8.856;2024-03-08T21:18:28;25.58;;;20.10;;
51020;SDS011;38907;45.562;8.856;2024-03-08T21:23:32;23.77;;;18.02;;
51020;SDS011;38907;45.562;8.856;2024-03-08T21:28:34;24.58;;;18.80;;
51020;SDS011;38907;45.562;8.856;2024-03-08T21:33:36;22.65;;;19.13;;
51020;SDS011;38907;45.562;8.856;2024-03-08T21:38:39;26.70;;;19.50;;
51020;SDS011;38907;45.562;8.856;2024-03-08T21:43:41;26.75;;;20.98;;
51020;SDS011;38907;45.562;8.856;2024-03-08T21:48:43;26.23;;;20.08;;
51020;SDS011;38907;45.562;8.856;2024-03-08T21:53:46;24.80;;;19.58;;
51020;SDS011;38907;45.562;8.856;2024-03-08T21:58:48;24.90;;;19.75;;
51020;SDS011;38907;45.562;8.856;2024-03-08T22:03:49;24.52;;;18.55;;
51020;SDS011;38907;45.562;8.856;2024-03-08T22:08:52;23.92;;;19.85;;
51020;SDS011;38907;45.562;8.856;2024-03-08T22:13:54;22.85;;;19.02;;
51020;SDS011;38907;45.562;8.856;2024-03-08T22:18:56;23.63;;;19.35;;
51020;SDS011;38907;45.562;8.856;2024-03-08T22:23:59;22.35;;;18.48;;
51020;SDS011;38907;45.562;8.856;2024-03-08T22:29:01;23.00;;;19.65;;
51020;SDS011;38907;45.562;8.856;2024-03-08T22:34:03;27.40;;;19.80;;
51020;SDS011;38907;45.562;8.856;2024-03-08T22:39:07;22.27;;;19.48;;
51020;SDS011;38907;45.562;8.856;2024-03-08T22:44:10;27.83;;;19.30;;
51020;SDS011;38907;45.562;8.856;2024-03-08T22:49:12;24.23;;;19.67;;
51020;SDS011;38907;45.562;8.856;2024-03-08T22:54:15;23.63;;;20.27;;
51020;SDS011;38907;45.562;8.856;2024-03-08T22:59:18;27.40;;;21.30;;
51020;SDS011;38907;45.562;8.856;2024-03-08T23:04:21;26.92;;;20.77;;
51020;SDS011;38907;45.562;8.856;2024-03-08T23:09:24;25.70;;;20.98;;
51020;SDS011;38907;45.562;8.856;2024-03-08T23:14:26;27.05;;;20.92;;
51020;SDS011;38907;45.562;8.856;2024-03-08T23:19:28;26.40;;;21.10;;
51020;SDS011;38907;45.562;8.856;2024-03-08T23:24:31;26.63;;;21.08;;
51020;SDS011;38907;45.562;8.856;2024-03-08T23:29:33;28.02;;;22.20;;
51020;SDS011;38907;45.562;8.856;2024-03-08T23:34:35;35.55;;;22.60;;
51020;SDS011;38907;45.562;8.856;2024-03-08T23:39:38;28.70;;;22.15;;
51020;SDS011;38907;45.562;8.856;2024-03-08T23:44:40;25.30;;;20.63;;
51020;SDS011;38907;45.562;8.856;2024-03-08T23:49:42;29.15;;;22.63;;
51020;SDS011;38907;45.562;8.856;2024-03-08T23:54:45;31.05;;;23.10;;
51020;SDS011;38907;45.562;8.856;2024-03-08T23:59:47;26.30;;;21.80;;
